sensor_id;sensor_type;location;lat;lon;timestamp;pressure;altitude;pressure_sealevel;temperature;humidity
59791;BME280;47431;51.640;5.554;2023-11-21T00:01:15;101694.53;;;4.94;100.00
59791;BME280;47431;51.640;5.554;2023-11-21T00:03:40;101695.31;;;4.98;100.00
59791;BME280;47431;51.640;5.554;2023-11-21T00:06:06;101697.63;;;4.77;100.00
59791;BME280;47431;51.640;5.554;2023-11-21T00:08:34;101695.97;;;4.73;100.00
59791;BME280;47431;51.640;5.554;2023-11-21T00:11:00;101697.97;;;4.65;100.00
59791;BME280;47431;51.640;5.554;2023-11-21T00:13:25;101703.56;;;4.52;100.00
59791;BME280;47431;51.640;5.554;2023-11-21T00:15:51;101710.03;;;4.42;100.00
59791;BME280;47431;51.640;5.554;2023-11-21T00:18:16;101705.59;;;4.42;100.00
59791;BME280;47431;51.640;5.554;2023-11-21T00:20:42;101712.09;;;4.30;100.00
59791;BME280;47431;51.640;5.554;2023-11-21T00:23:07;101708.69;;;4.24;100.00
59791;BME280;47431;51.640;5.554;2023-11-21T00:25:34;101705.28;;;4.18;100.00
59791;BME280;47431;51.640;5.554;2023-11-21T00:28:00;101703.88;;;4.02;100.00
59791;BME280;47431;51.640;5.554;2023-11-21T00:30:27;101712.97;;;3.91;100.00
59791;BME280;47431;51.640;5.554;2023-11-21T00:32:53;101714.63;;;3.96;100.00
59791;BME280;47431;51.640;5.554;2023-11-21T00:35:18;101702.19;;;3.99;100.00
59791;BME280;47431;51.640;5.554;2023-11-21T00:37:43;101705.97;;;3.87;100.00
59791;BME280;47431;51.640;5.554;2023-11-21T00:40:09;101709.78;;;3.75;100.00
59791;BME280;47431;51.640;5.554;2023-11-21T00:42:35;101707.44;;;3.61;100.00
59791;BME280;47431;51.640;5.554;2023-11-21T00:45:00;101722.50;;;3.59;100.00
59791;BME280;47431;51.640;5.554;2023-11-21T00:47:26;101710.19;;;3.57;100.00
59791;BME280;47431;51.640;5.554;2023-11-21T00:49:51;101706.88;;;3.43;100.00
59791;BME280;47431;51.640;5.554;2023-11-21T00:52:16;101714.81;;;3.45;100.00
59791;BME280;47431;51.640;5.554;2023-11-21T00:54:42;101717.84;;;3.26;100.00
59791;BME280;47431;51.640;5.554;2023-11-21T00:57:07;101711.41;;;3.40;100.00
59791;BME280;47431;51.640;5.554;2023-11-21T00:59:34;101720.75;;;3.14;100.00
59791;BME280;47431;51.640;5.554;2023-11-21T01:01:59;101713.13;;;3.42;100.00
59791;BME280;47431;51.640;5.554;2023-11-21T01:04:27;101717.84;;;3.26;100.00
59791;BME280;47431;51.640;5.554;2023-11-21T01:06:52;101702.28;;;3.53;100.00
59791;BME280;47431;51.640;5.554;2023-11-21T01:09:18;101712.97;;;3.50;100.00
59791;BME280;47431;51.640;5.554;2023-11-21T01:11:43;101712.25;;;3.42;100.00
59791;BME280;47431;51.640;5.554;2023-11-21T01:14:09;101723.19;;;3.25;100.00
59791;BME280;47431;51.640;5.554;2023-11-21T01:16:35;101728.44;;;3.28;100.00
59791;BME280;47431;51.640;5.554;2023-11-21T01:19:00;101735.47;;;3.30;100.00
59791;BME280;47431;51.640;5.554;2023-11-21T01:21:26;101736.34;;;3.31;100.00
59791;BME280;47431;51.640;5.554;2023-11-21T01:23:53;101740.28;;;3.10;100.00
59791;BME280;47431;51.640;5.554;2023-11-21T01:26:20;101741.94;;;3.15;100.00
59791;BME280;47431;51.640;5.554;2023-11-21T01:28:45;101738.44;;;3.13;100.00
59791;BME280;47431;51.640;5.554;2023-11-21T01:31:11;101741.81;;;3.22;100.00
59791;BME280;47431;51.640;5.554;2023-11-21T01:33:36;101737.53;;;3.14;100.00
59791;BME280;47431;51.640;5.554;2023-11-21T01:36:01;101741.03;;;3.16;100.00
59791;BME280;47431;51.640;5.554;2023-11-21T01:38:27;101736.69;;;3.14;100.00
59791;BME280;47431;51.640;5.554;2023-11-21T01:40:52;101739.16;;;3.22;100.00
59791;BME280;47431;51.640;5.554;2023-11-21T01:43:17;101738.16;;;3.27;100.00
59791;BME280;47431;51.640;5.554;2023-11-21T01:45:43;101734.22;;;3.49;100.00
59791;BME280;47431;51.640;5.554;2023-11-21T01:48:10;101735.69;;;3.64;100.00
59791;BME280;47431;51.640;5.554;2023-11-21T01:50:37;101732.72;;;3.78;100.00
59791;BME280;47431;51.640;5.554;2023-11-21T01:53:03;101711.88;;;4.00;100.00
59791;BME280;47431;51.640;5.554;2023-11-21T01:55:29;101700.75;;;4.22;100.00
59791;BME280;47431;51.640;5.554;2023-11-21T01:57:56;101709.34;;;4.34;100.00
59791;BME280;47431;51.640;5.554;2023-11-21T02:00:22;101705.59;;;4.42;100.00
59791;BME280;47431;51.640;5.554;2023-11-21T02:02:49;101703.91;;;4.38;100.00
59791;BME280;47431;51.640;5.554;2023-11-21T02:05:16;101711.09;;;4.35;100.00
59791;BME280;47431;51.640;5.554;2023-11-21T02:07:43;101719.59;;;4.49;100.00
59791;BME280;47431;51.640;5.554;2023-11-21T02:10:09;101719.13;;;4.68;100.00
59791;BME280;47431;51.640;5.554;2023-11-21T02:12:35;101716.31;;;4.74;100.00
59791;BME280;47431;51.640;5.554;2023-11-21T02:15:04;101724.28;;;4.74;100.00
59791;BME280;47431;51.640;5.554;2023-11-21T02:17:37;101717.94;;;4.80;100.00
59791;BME280;47431;51.640;5.554;2023-11-21T02:20:03;101719.66;;;4.82;100.00
59791;BME280;47431;51.640;5.554;2023-11-21T02:22:31;101727.47;;;4.89;100.00
59791;BME280;47431;51.640;5.554;2023-11-21T02:24:59;101714.94;;;4.94;100.00
59791;BME280;47431;51.640;5.554;2023-11-21T02:27:24;101710.34;;;4.99;100.00
59791;BME280;47431;51.640;5.554;2023-11-21T02:29:50;101725.25;;;5.05;100.00
59791;BME280;47431;51.640;5.554;2023-11-21T02:32:15;101711.06;;;5.06;100.00
59791;BME280;47431;51.640;5.554;2023-11-21T02:34:44;101689.63;;;5.12;100.00
59791;BME280;47431;51.640;5.554;2023-11-21T02:37:09;101681.59;;;5.14;100.00
59791;BME280;47431;51.640;5.554;2023-11-21T02:39:35;101681.59;;;5.14;100.00
59791;BME280;47431;51.640;5.554;2023-11-21T02:42:00;101691.31;;;5.15;100.00
59791;BME280;47431;51.640;5.554;2023-11-21T02:44:26;101695.72;;;5.16;100.00
59791;BME280;47431;51.640;5.554;2023-11-21T02:46:51;101685.09;;;5.14;100.00
59791;BME280;47431;51.640;5.554;2023-11-21T02:49:16;101694.03;;;5.13;100.00
59791;BME280;47431;51.640;5.554;2023-11-21T02:51:42;101685.06;;;5.16;100.00
59791;BME280;47431;51.640;5.554;2023-11-21T02:54:08;101687.72;;;5.16;100.00
59791;BME280;47431;51.640;5.554;2023-11-21T02:56:34;101686.75;;;5.18;100.00
59791;BME280;47431;51.640;5.554;2023-11-21T02:59:00;101686.69;;;5.22;100.00
59791;BME280;47431;51.640;5.554;2023-11-21T03:01:25;101695.50;;;5.24;100.00
59791;BME280;47431;51.640;5.554;2023-11-21T03:03:51;101689.34;;;5.22;100.00
59791;BME280;47431;51.640;5.554;2023-11-21T03:06:20;101691.19;;;5.19;100.00
59791;BME280;47431;51.640;5.554;2023-11-21T03:08:46;101691.19;;;5.19;100.00
59791;BME280;47431;51.640;5.554;2023-11-21T03:11:12;101698.28;;;5.19;100.00
59791;BME280;47431;51.640;5.554;2023-11-21T03:13:39;101707.19;;;5.18;100.00
59791;BME280;47431;51.640;5.554;2023-11-21T03:16:07;101699.31;;;5.15;100.00
59791;BME280;47431;51.640;5.554;2023-11-21T03:18:33;101694.09;;;5.10;100.00
59791;BME280;47431;51.640;5.554;2023-11-21T03:20:59;101710.78;;;5.15;100.00
59791;BME280;47431;51.640;5.554;2023-11-21T03:23:24;101718.91;;;5.12;100.00
59791;BME280;47431;51.640;5.554;2023-11-21T03:25:50;101715.34;;;5.12;100.00
59791;BME280;47431;51.640;5.554;2023-11-21T03:28:15;101713.66;;;5.09;100.00
59791;BME280;47431;51.640;5.554;2023-11-21T03:30:40;101714.63;;;5.05;100.00
59791;BME280;47431;51.640;5.554;2023-11-21T03:33:06;101717.34;;;5.03;100.00
59791;BME280;47431;51.640;5.554;2023-11-21T03:35:33;101724.50;;;5.01;100.00
59791;BME280;47431;51.640;5.554;2023-11-21T03:37:58;101721.03;;;4.98;100.00
59791;BME280;47431;51.640;5.554;2023-11-21T03:40:23;101721.91;;;4.98;100.00
59791;BME280;47431;51.640;5.554;2023-11-21T03:42:49;101728.28;;;4.92;100.00
59791;BME280;47431;51.640;5.554;2023-11-21T03:45:14;101730.19;;;4.86;100.00
59791;BME280;47431;51.640;5.554;2023-11-21T03:47:42;101730.34;;;4.81;100.00
59791;BME280;47431;51.640;5.554;2023-11-21T03:50:08;101739.28;;;4.77;100.00
59791;BME280;47431;51.640;5.554;2023-11-21T03:52:34;101737.66;;;4.71;100.00
59791;BME280;47431;51.640;5.554;2023-11-21T03:55:00;101740.38;;;4.69;100.00
59791;BME280;47431;51.640;5.554;2023-11-21T03:57:26;101738.84;;;4.59;100.00
59791;BME280;47431;51.640;5.554;2023-11-21T03:59:53;101746.81;;;4.59;100.00
59791;BME280;47431;51.640;5.554;2023-11-21T04:02:19;101745.97;;;4.59;100.00
59791;BME280;47431;51.640;5.554;2023-11-21T04:04:44;101746.75;;;4.62;100.00
59791;BME280;47431;51.640;5.554;2023-11-21T04:07:09;101752.84;;;4.67;100.00
59791;BME280;47431;51.640;5.554;2023-11-21T04:09:35;101760.78;;;4.69;100.00
59791;BME280;47431;51.640;5.554;2023-11-21T04:12:01;101765.19;;;4.70;100.00
59791;BME280;47431;51.640;5.554;2023-11-21T04:14:27;101753.88;;;4.62;100.00
59791;BME280;47431;51.640;5.554;2023-11-21T04:16:52;101771.81;;;4.52;100.00
59791;BME280;47431;51.640;5.554;2023-11-21T04:19:19;101773.81;;;4.42;100.00
59791;BME280;47431;51.640;5.554;2023-11-21T04:21:44;101778.47;;;4.34;100.00
59791;BME280;47431;51.640;5.554;2023-11-21T04:24:10;101786.59;;;4.26;100.00
59791;BME280;47431;51.640;5.554;2023-11-21T04:26:35;101795.47;;;4.26;100.00
59791;BME280;47431;51.640;5.554;2023-11-21T04:29:01;101799.09;;;4.21;100.00
59791;BME280;47431;51.640;5.554;2023-11-21T04:31:26;101795.59;;;4.20;100.00
59791;BME280;47431;51.640;5.554;2023-11-21T04:33:52;101803.63;;;4.17;100.00
59791;BME280;47431;51.640;5.554;2023-11-21T04:36:17;101806.09;;;4.26;100.00
59791;BME280;47431;51.640;5.554;2023-11-21T04:38:42;101801.56;;;4.30;100.00
59791;BME280;47431;51.640;5.554;2023-11-21T04:41:08;101814.66;;;4.39;100.00
59791;BME280;47431;51.640;5.554;2023-11-21T04:43:33;101805.63;;;4.47;100.00
59791;BME280;47431;51.640;5.554;2023-11-21T04:45:59;101807.19;;;4.55;100.00
59791;BME280;47431;51.640;5.554;2023-11-21T04:48:24;101813.09;;;4.68;100.00
59791;BME280;47431;51.640;5.554;2023-11-21T04:50:50;101822.69;;;4.74;100.00
59791;BME280;47431;51.640;5.554;2023-11-21T04:53:16;101808.41;;;4.78;100.00
59791;BME280;47431;51.640;5.554;2023-11-21T04:55:42;101819.81;;;4.84;100.00
59791;BME280;47431;51.640;5.554;2023-11-21T04:58:07;101821.50;;;4.88;100.00
59791;BME280;47431;51.640;5.554;2023-11-21T05:00:33;101817.09;;;4.87;100.00
59791;BME280;47431;51.640;5.554;2023-11-21T05:02:59;101832.94;;;4.91;100.00
59791;BME280;47431;51.640;5.554;2023-11-21T05:05:26;101844.44;;;4.92;100.00
59791;BME280;47431;51.640;5.554;2023-11-21T05:07:51;101850.59;;;4.94;100.00
59791;BME280;47431;51.640;5.554;2023-11-21T05:10:18;101850.53;;;4.97;100.00
59791;BME280;47431;51.640;5.554;2023-11-21T05:12:44;101857.53;;;5.01;100.00
59791;BME280;47431;51.640;5.554;2023-11-21T05:15:13;101853.97;;;5.01;100.00
59791;BME280;47431;51.640;5.554;2023-11-21T05:17:40;101846.84;;;5.03;100.00
59791;BME280;47431;51.640;5.554;2023-11-21T05:20:15;101846.84;;;5.03;100.00
59791;BME280;47431;51.640;5.554;2023-11-21T05:22:50;101842.41;;;5.03;100.00
59791;BME280;47431;51.640;5.554;2023-11-21T05:25:15;101853.94;;;5.02;100.00
59791;BME280;47431;51.640;5.554;2023-11-21T05:27:46;101850.47;;;5.00;100.00
59791;BME280;47431;51.640;5.554;2023-11-21T05:30:13;101862.00;;;4.99;100.00
59791;BME280;47431;51.640;5.554;2023-11-21T05:32:39;101862.91;;;4.98;100.00
59791;BME280;47431;51.640;5.554;2023-11-21T05:35:07;101870.88;;;5.00;100.00
59791;BME280;47431;51.640;5.554;2023-11-21T05:37:37;101884.16;;;5.00;100.00
59791;BME280;47431;51.640;5.554;2023-11-21T05:40:04;101888.53;;;5.02;100.00
59791;BME280;47431;51.640;5.554;2023-11-21T05:42:34;101900.09;;;5.01;100.00
59791;BME280;47431;51.640;5.554;2023-11-21T05:45:00;101906.31;;;5.02;100.00
59791;BME280;47431;51.640;5.554;2023-11-21T05:47:45;101899.13;;;5.04;100.00
59791;BME280;47431;51.640;5.554;2023-11-21T05:50:13;101907.09;;;5.05;100.00
59791;BME280;47431;51.640;5.554;2023-11-21T05:52:42;101912.38;;;5.07;100.00
59791;BME280;47431;51.640;5.554;2023-11-21T05:55:09;101923.88;;;5.09;100.00
59791;BME280;47431;51.640;5.554;2023-11-21T05:57:35;101925.66;;;5.08;100.00
59791;BME280;47431;51.640;5.554;2023-11-21T06:00:08;101927.31;;;5.13;100.00
59791;BME280;47431;51.640;5.554;2023-11-21T06:02:53;101929.94;;;5.14;100.00
59791;BME280;47431;51.640;5.554;2023-11-21T06:05:20;101936.16;;;5.15;100.00
59791;BME280;47431;51.640;5.554;2023-11-21T06:07:46;101937.84;;;5.17;100.00
59791;BME280;47431;51.640;5.554;2023-11-21T06:10:12;101938.72;;;5.19;100.00
59791;BME280;47431;51.640;5.554;2023-11-21T06:12:40;101958.19;;;5.20;100.00
59791;BME280;47431;51.640;5.554;2023-11-21T06:15:08;101951.03;;;5.24;100.00
59791;BME280;47431;51.640;5.554;2023-11-21T06:17:35;101954.53;;;5.24;100.00
59791;BME280;47431;51.640;5.554;2023-11-21T06:20:05;101949.16;;;5.27;100.00
59791;BME280;47431;51.640;5.554;2023-11-21T06:22:44;101957.03;;;5.32;100.00
59791;BME280;47431;51.640;5.554;2023-11-21T06:25:10;101966.78;;;5.33;100.00
59791;BME280;47431;51.640;5.554;2023-11-21T06:27:42;101964.97;;;5.33;100.00
59791;BME280;47431;51.640;5.554;2023-11-21T06:30:08;101967.63;;;5.33;100.00
59791;BME280;47431;51.640;5.554;2023-11-21T06:32:38;101976.47;;;5.36;100.00
59791;BME280;47431;51.640;5.554;2023-11-21T06:35:04;101983.53;;;5.37;100.00
59791;BME280;47431;51.640;5.554;2023-11-21T06:37:31;101992.38;;;5.39;100.00
59791;BME280;47431;51.640;5.554;2023-11-21T06:39:57;101994.09;;;5.41;100.00
59791;BME280;47431;51.640;5.554;2023-11-21T06:42:24;101989.56;;;5.43;100.00
59791;BME280;47431;51.640;5.554;2023-11-21T06:44:50;101993.09;;;5.45;100.00
59791;BME280;47431;51.640;5.554;2023-11-21T06:47:19;101994.81;;;5.46;100.00
59791;BME280;47431;51.640;5.554;2023-11-21T06:49:50;101992.09;;;5.50;100.00
59791;BME280;47431;51.640;5.554;2023-11-21T06:52:16;101990.31;;;5.50;100.00
59791;BME280;47431;51.640;5.554;2023-11-21T06:54:42;101988.53;;;5.51;100.00
59791;BME280;47431;51.640;5.554;2023-11-21T06:57:07;101996.34;;;5.57;100.00
59791;BME280;47431;51.640;5.554;2023-11-21T06:59:33;101997.16;;;5.61;100.00
59791;BME280;47431;51.640;5.554;2023-11-21T07:01:58;102000.66;;;5.63;100.00
59791;BME280;47431;51.640;5.554;2023-11-21T07:04:24;102014.81;;;5.65;100.00
59791;BME280;47431;51.640;5.554;2023-11-21T07:06:51;102016.56;;;5.66;100.00
59791;BME280;47431;51.640;5.554;2023-11-21T07:09:16;102015.59;;;5.70;100.00
59791;BME280;47431;51.640;5.554;2023-11-21T07:11:42;102019.97;;;5.73;100.00
59791;BME280;47431;51.640;5.554;2023-11-21T07:14:07;102018.06;;;5.76;100.00
59791;BME280;47431;51.640;5.554;2023-11-21T07:16:37;102020.69;;;5.78;100.00
59791;BME280;47431;51.640;5.554;2023-11-21T07:19:09;102029.53;;;5.80;100.00
59791;BME280;47431;51.640;5.554;2023-11-21T07:21:35;102026.84;;;5.81;100.00
59791;BME280;47431;51.640;5.554;2023-11-21T07:24:01;102022.28;;;5.85;100.00
59791;BME280;47431;51.640;5.554;2023-11-21T07:26:27;102029.31;;;5.89;100.00
59791;BME280;47431;51.640;5.554;2023-11-21T07:28:53;102035.41;;;5.94;100.00
59791;BME280;47431;51.640;5.554;2023-11-21T07:31:19;102042.44;;;5.97;100.00
59791;BME280;47431;51.640;5.554;2023-11-21T07:33:47;102039.69;;;6.00;100.00
59791;BME280;47431;51.640;5.554;2023-11-21T07:36:14;102046.72;;;6.04;100.00
59791;BME280;47431;51.640;5.554;2023-11-21T07:38:39;102045.78;;;6.07;100.00
59791;BME280;47431;51.640;5.554;2023-11-21T07:41:05;102053.59;;;6.13;100.00
59791;BME280;47431;51.640;5.554;2023-11-21T07:43:33;102057.88;;;6.19;100.00
59791;BME280;47431;51.640;5.554;2023-11-21T07:46:04;102064.94;;;6.21;100.00
59791;BME280;47431;51.640;5.554;2023-11-21T07:48:30;102063.97;;;6.24;100.00
59791;BME280;47431;51.640;5.554;2023-11-21T07:50:56;102065.66;;;6.28;100.00
59791;BME280;47431;51.640;5.554;2023-11-21T07:53:23;102073.56;;;6.31;100.00
59791;BME280;47431;51.640;5.554;2023-11-21T07:55:50;102074.41;;;6.33;100.00
59791;BME280;47431;51.640;5.554;2023-11-21T07:58:16;102064.53;;;6.37;100.00
59791;BME280;47431;51.640;5.554;2023-11-21T08:00:41;102073.25;;;6.44;100.00
59791;BME280;47431;51.640;5.554;2023-11-21T08:03:07;102074.09;;;6.44;100.00
59791;BME280;47431;51.640;5.554;2023-11-21T08:05:32;102071.47;;;6.43;100.00
59791;BME280;47431;51.640;5.554;2023-11-21T08:07:58;102073.16;;;6.47;100.00
59791;BME280;47431;51.640;5.554;2023-11-21T08:10:23;102081.81;;;6.55;100.00
59791;BME280;47431;51.640;5.554;2023-11-21T08:12:49;102081.75;;;6.58;100.00
59791;BME280;47431;51.640;5.554;2023-11-21T08:15:15;102083.44;;;6.61;100.00
59791;BME280;47431;51.640;5.554;2023-11-21T08:17:41;102077.09;;;6.65;100.00
59791;BME280;47431;51.640;5.554;2023-11-21T08:20:06;102088.53;;;6.70;100.00
59791;BME280;47431;51.640;5.554;2023-11-21T08:22:33;102093.75;;;6.75;100.00
59791;BME280;47431;51.640;5.554;2023-11-21T08:24:59;102101.59;;;6.80;100.00
59791;BME280;47431;51.640;5.554;2023-11-21T08:27:24;102106.00;;;6.82;100.00
59791;BME280;47431;51.640;5.554;2023-11-21T08:29:50;102113.06;;;6.83;100.00
59791;BME280;47431;51.640;5.554;2023-11-21T08:32:17;102109.56;;;6.81;100.00
59791;BME280;47431;51.640;5.554;2023-11-21T08:34:43;102109.47;;;6.84;100.00
59791;BME280;47431;51.640;5.554;2023-11-21T08:37:09;102107.69;;;6.85;100.00
59791;BME280;47431;51.640;5.554;2023-11-21T08:39:36;102120.09;;;6.86;100.00
59791;BME280;47431;51.640;5.554;2023-11-21T08:42:03;102127.22;;;6.85;100.00
59791;BME280;47431;51.640;5.554;2023-11-21T08:44:28;102134.16;;;6.93;100.00
59791;BME280;47431;51.640;5.554;2023-11-21T08:46:55;102140.22;;;6.98;100.00
59791;BME280;47431;51.640;5.554;2023-11-21T08:49:21;102138.31;;;7.03;100.00
59791;BME280;47431;51.640;5.554;2023-11-21T08:51:46;102134.59;;;7.09;100.00
59791;BME280;47431;51.640;5.554;2023-11-21T08:54:12;102143.38;;;7.13;100.00
59791;BME280;47431;51.640;5.554;2023-11-21T08:56:37;102131.41;;;7.26;100.00
59791;BME280;47431;51.640;5.554;2023-11-21T08:59:02;102132.94;;;7.35;100.00
59791;BME280;47431;51.640;5.554;2023-11-21T09:01:29;102132.59;;;7.47;100.00
59791;BME280;47431;51.640;5.554;2023-11-21T09:03:57;102136.81;;;7.55;100.00
59791;BME280;47431;51.640;5.554;2023-11-21T09:06:23;102137.47;;;7.61;100.00
59791;BME280;47431;51.640;5.554;2023-11-21T09:08:49;102140.00;;;7.66;100.00
59791;BME280;47431;51.640;5.554;2023-11-21T09:11:14;102133.41;;;7.78;100.00
59791;BME280;47431;51.640;5.554;2023-11-21T09:13:40;102134.78;;;7.92;100.00
59791;BME280;47431;51.640;5.554;2023-11-21T09:16:05;102145.47;;;8.19;100.00
59791;BME280;47431;51.640;5.554;2023-11-21T09:18:31;102145.59;;;8.41;100.00
59791;BME280;47431;51.640;5.554;2023-11-21T09:20:56;102148.78;;;8.54;100.00
59791;BME280;47431;51.640;5.554;2023-11-21T09:23:22;102147.81;;;8.57;100.00
59791;BME280;47431;51.640;5.554;2023-11-21T09:25:47;102146.38;;;8.45;100.00
59791;BME280;47431;51.640;5.554;2023-11-21T09:28:15;102148.72;;;8.56;100.00
59791;BME280;47431;51.640;5.554;2023-11-21T09:30:41;102142.28;;;8.61;100.00
59791;BME280;47431;51.640;5.554;2023-11-21T09:33:06;102145.19;;;8.55;100.00
59791;BME280;47431;51.640;5.554;2023-11-21T09:35:32;102154.16;;;8.53;100.00
59791;BME280;47431;51.640;5.554;2023-11-21T09:37:57;102158.06;;;8.69;100.00
59791;BME280;47431;51.640;5.554;2023-11-21T09:40:23;102167.50;;;8.54;100.00
59791;BME280;47431;51.640;5.554;2023-11-21T09:42:58;102169.16;;;8.58;100.00
59791;BME280;47431;51.640;5.554;2023-11-21T09:45:28;102180.13;;;8.49;100.00
59791;BME280;47431;51.640;5.554;2023-11-21T09:47:57;102181.38;;;8.38;100.00
59791;BME280;47431;51.640;5.554;2023-11-21T09:50:24;102185.72;;;8.41;100.00
59791;BME280;47431;51.640;5.554;2023-11-21T09:53:17;102191.88;;;8.45;100.00
59791;BME280;47431;51.640;5.554;2023-11-21T09:55:45;102188.41;;;8.41;100.00
59791;BME280;47431;51.640;5.554;2023-11-21T09:58:11;102186.63;;;8.42;100.00
59791;BME280;47431;51.640;5.554;2023-11-21T10:00:45;102189.28;;;8.42;100.00
59791;BME280;47431;51.640;5.554;2023-11-21T10:03:11;102195.53;;;8.42;100.00
59791;BME280;47431;51.640;5.554;2023-11-21T10:05:38;102196.22;;;8.47;100.00
59791;BME280;47431;51.640;5.554;2023-11-21T10:08:09;102199.09;;;8.41;100.00
59791;BME280;47431;51.640;5.554;2023-11-21T10:10:36;102209.75;;;8.43;100.00
59791;BME280;47431;51.640;5.554;2023-11-21T10:13:03;102205.28;;;8.43;100.00
59791;BME280;47431;51.640;5.554;2023-11-21T10:15:33;102218.44;;;8.51;100.00
59791;BME280;47431;51.640;5.554;2023-11-21T10:18:02;102212.78;;;8.60;100.00
59791;BME280;47431;51.640;5.554;2023-11-21T10:20:28;102225.19;;;8.63;100.00
59791;BME280;47431;51.640;5.554;2023-11-21T10:22:54;102232.34;;;8.62;100.00
59791;BME280;47431;51.640;5.554;2023-11-21T10:25:21;102250.25;;;8.60;100.00
59791;BME280;47431;51.640;5.554;2023-11-21T10:27:48;102253.00;;;8.57;100.00
59791;BME280;47431;51.640;5.554;2023-11-21T10:30:18;102262.03;;;8.55;100.00
59791;BME280;47431;51.640;5.554;2023-11-21T10:32:44;102277.19;;;8.56;100.00
59791;BME280;47431;51.640;5.554;2023-11-21T10:35:10;102273.28;;;8.66;100.00
59791;BME280;47431;51.640;5.554;2023-11-21T10:37:39;102275.81;;;8.69;100.00
59791;BME280;47431;51.640;5.554;2023-11-21T10:40:07;102274.75;;;8.75;100.00
59791;BME280;47431;51.640;5.554;2023-11-21T10:42:33;102282.66;;;8.78;100.00
59791;BME280;47431;51.640;5.554;2023-11-21T10:44:58;102287.66;;;8.89;100.00
59791;BME280;47431;51.640;5.554;2023-11-21T10:47:24;102290.31;;;9.16;100.00
59791;BME280;47431;51.640;5.554;2023-11-21T10:49:49;102278.19;;;9.55;100.00
59791;BME280;47431;51.640;5.554;2023-11-21T10:52:15;102274.91;;;9.72;100.00
59791;BME280;47431;51.640;5.554;2023-11-21T10:54:43;102273.53;;;10.08;100.00
59791;BME280;47431;51.640;5.554;2023-11-21T10:57:10;102256.16;;;11.05;100.00
59791;BME280;47431;51.640;5.554;2023-11-21T10:59:36;102236.97;;;11.54;100.00
59791;BME280;47431;51.640;5.554;2023-11-21T11:02:13;102211.75;;;11.57;100.00
59791;BME280;47431;51.640;5.554;2023-11-21T11:04:47;102230.09;;;11.28;100.00
59791;BME280;47431;51.640;5.554;2023-11-21T11:07:14;102237.84;;;10.94;100.00
59791;BME280;47431;51.640;5.554;2023-11-21T11:09:41;102252.53;;;10.64;100.00
59791;BME280;47431;51.640;5.554;2023-11-21T11:12:08;102268.81;;;10.37;100.00
59791;BME280;47431;51.640;5.554;2023-11-21T11:14:35;102296.13;;;10.25;100.00
59791;BME280;47431;51.640;5.554;2023-11-21T11:17:01;102318.72;;;10.19;100.00
59791;BME280;47431;51.640;5.554;2023-11-21T11:19:27;102344.91;;;10.12;100.00
59791;BME280;47431;51.640;5.554;2023-11-21T11:32:58;102440.81;;;10.55;100.00
59791;BME280;47431;51.640;5.554;2023-11-21T11:35:38;102446.84;;;10.84;100.00
59791;BME280;47431;51.640;5.554;2023-11-21T11:38:07;102470.53;;;10.97;100.00
59791;BME280;47431;51.640;5.554;2023-11-21T11:40:40;102503.06;;;10.89;100.00
59791;BME280;47431;51.640;5.554;2023-11-21T11:43:06;102510.13;;;10.68;100.00
59791;BME280;47431;51.640;5.554;2023-11-21T11:45:33;102529.75;;;10.44;100.00
59791;BME280;47431;51.640;5.554;2023-11-21T11:48:01;102549.13;;;10.28;100.00
59791;BME280;47431;51.640;5.554;2023-11-21T11:50:27;102555.81;;;10.17;100.00
59791;BME280;47431;51.640;5.554;2023-11-21T11:52:53;102578.72;;;10.00;100.00
59791;BME280;47431;51.640;5.554;2023-11-21T11:55:24;102596.94;;;9.90;100.00
59791;BME280;47431;51.640;5.554;2023-11-21T11:57:54;102616.94;;;9.80;100.00
59791;BME280;47431;51.640;5.554;2023-11-21T12:03:11;102634.41;;;9.64;100.00
59791;BME280;47431;51.640;5.554;2023-11-21T12:05:36;102647.09;;;9.59;100.00
59791;BME280;47431;51.640;5.554;2023-11-21T12:08:06;102649.00;;;9.54;100.00
59791;BME280;47431;51.640;5.554;2023-11-21T12:10:34;102664.25;;;9.52;100.00
59791;BME280;47431;51.640;5.554;2023-11-21T12:13:05;102673.22;;;9.51;100.00
59791;BME280;47431;51.640;5.554;2023-11-21T12:15:35;102681.44;;;9.45;100.00
59791;BME280;47431;51.640;5.554;2023-11-21T12:18:02;102690.34;;;9.47;100.00
59791;BME280;47431;51.640;5.554;2023-11-21T12:20:28;102692.22;;;9.43;100.00
59791;BME280;47431;51.640;5.554;2023-11-21T12:22:58;102699.44;;;9.41;100.00
59791;BME280;47431;51.640;5.554;2023-11-21T12:25:30;102702.75;;;9.49;100.00
59791;BME280;47431;51.640;5.554;2023-11-21T12:27:59;102720.66;;;9.49;100.00
59791;BME280;47431;51.640;5.554;2023-11-21T12:30:27;102723.28;;;9.50;100.00
59791;BME280;47431;51.640;5.554;2023-11-21T12:33:01;102733.28;;;9.44;100.00
59791;BME280;47431;51.640;5.554;2023-11-21T12:35:32;102734.28;;;9.41;100.00
59791;BME280;47431;51.640;5.554;2023-11-21T12:38:02;102746.97;;;9.34;100.00
59791;BME280;47431;51.640;5.554;2023-11-21T12:40:28;102749.84;;;9.28;100.00
59791;BME280;47431;51.640;5.554;2023-11-21T12:42:59;102748.91;;;9.29;100.00
59791;BME280;47431;51.640;5.554;2023-11-21T12:45:26;102752.56;;;9.26;100.00
59791;BME280;47431;51.640;5.554;2023-11-21T12:48:03;102749.91;;;9.25;100.00
59791;BME280;47431;51.640;5.554;2023-11-21T12:50:33;102756.41;;;9.16;100.00
59791;BME280;47431;51.640;5.554;2023-11-21T12:53:02;102755.66;;;9.11;100.00
59791;BME280;47431;51.640;5.554;2023-11-21T12:55:32;102761.81;;;9.15;100.00
59791;BME280;47431;51.640;5.554;2023-11-21T12:58:01;102760.91;;;9.14;100.00
59791;BME280;47431;51.640;5.554;2023-11-21T13:03:04;102766.84;;;9.25;100.00
59791;BME280;47431;51.640;5.554;2023-11-21T13:05:32;102766.78;;;9.29;100.00